Time;durP1;ratioP1;P1;durP2;ratioP2;P2;SDS_P1;SDS_P2;PMS_P1;PMS_P2;Temp;Humidity;BMP_temperature;BMP_pressure;BME280_temperature;BME280_humidity;BME280_pressure;Samples;Min_cycle;Max_cycle;Signal;HPM_P1;HPM_P2
2022/06/02 00:01:20;;;;;;;45.78;31.88;;;538.20;2406.40;;;;;;5032478;28;20033;-73
2022/06/02 00:04:02;;;;;;;45.95;31.65;;;538.10;2406.40;;;;;;5040772;28;20041;-73
2022/06/02 00:06:46;;;;;;;43.10;31.10;;;538.00;2406.40;;;;;;5041080;28;20045;-74
2022/06/02 00:09:14;;;;;;;47.20;32.30;;;538.10;2406.40;;;;;;5041690;28;20044;-75
2022/06/02 00:12:07;;;;;;;44.47;29.48;;;538.00;2406.40;;;;;;5033774;28;20071;-76
2022/06/02 00:14:51;;;;;;;45.17;30.45;;;538.00;2406.40;;;;;;5047777;28;20038;-74
2022/06/02 00:17:51;;;;;;;49.95;32.47;;;538.00;2406.40;;;;;;5080358;28;20064;-75
2022/06/02 00:20:28;;;;;;;52.00;34.58;;;537.80;2406.40;;;;;;5088575;28;20466;-72
2022/06/02 00:23:32;;;;;;;57.83;38.00;;;537.70;2406.40;;;;;;5103807;28;20035;-73
2022/06/02 00:26:10;;;;;;;52.33;36.22;;;537.60;2406.40;;;;;;5024144;28;20038;-73
2022/06/02 00:28:42;;;;;;;54.47;37.25;;;512.90;2380.80;;;;;;5023937;28;20037;-75
2022/06/02 00:31:14;;;;;;;53.88;36.50;;;512.90;2380.80;;;;;;5026039;28;20377;-74
2022/06/02 00:34:10;;;;;;;58.58;39.00;;;512.80;2380.80;;;;;;5024073;28;20419;-75
2022/06/02 00:36:56;;;;;;;56.05;38.83;;;512.80;2380.80;;;;;;5027464;28;20081;-73
2022/06/02 00:39:22;;;;;;;63.58;42.63;;;512.90;2380.80;;;;;;5023488;28;20025;-73
2022/06/02 00:42:10;;;;;;;55.45;39.13;;;537.60;2406.40;;;;;;5006060;28;20156;-72
2022/06/02 00:44:53;;;;;;;56.83;38.40;;;512.90;2380.80;;;;;;5031602;28;20041;-73
2022/06/02 00:47:31;;;;;;;59.95;38.88;;;537.60;2406.40;;;;;;5024621;28;20476;-72
2022/06/02 00:50:05;;;;;;;57.05;40.10;;;512.90;2380.80;;;;;;5024546;28;20551;-75
2022/06/02 00:52:44;;;;;;;59.17;40.33;;;512.80;2380.80;;;;;;5025713;28;20025;-75
2022/06/02 00:58:50;;;;;;;59.60;37.53;;;512.90;2380.80;;;;;;5025452;28;20036;-73
2022/06/02 01:01:25;;;;;;;52.33;35.67;;;537.60;2406.40;;;;;;5023265;28;20041;-73
2022/06/02 01:03:54;;;;;;;51.83;35.22;;;537.80;2406.40;;;;;;5080351;28;20025;-73
2022/06/02 01:06:26;;;;;;;52.70;34.80;;;537.80;2406.40;;;;;;5082184;28;20024;-73
2022/06/02 01:09:19;;;;;;;48.38;34.65;;;537.60;2406.40;;;;;;5083062;28;20043;-72
2022/06/02 01:11:57;;;;;;;55.03;39.60;;;512.80;2380.80;;;;;;5085931;28;20020;-73
2022/06/02 01:14:43;;;;;;;56.05;38.33;;;512.70;2380.80;;;;;;5103092;28;20022;-73
2022/06/02 01:17:24;;;;;;;53.83;38.10;;;512.70;2380.80;;;;;;5083377;28;20082;-72
2022/06/02 01:20:17;;;;;;;60.83;39.80;;;512.80;2380.80;;;;;;5083261;28;20024;-73
2022/06/02 01:23:07;;;;;;;54.15;35.55;;;512.80;2380.80;;;;;;5082681;28;20512;-72
2022/06/02 01:26:06;;;;;;;51.03;33.70;;;512.80;2380.80;;;;;;5083983;28;20020;-73
2022/06/02 01:28:50;;;;;;;41.83;31.02;;;512.80;2380.80;;;;;;5083464;28;20033;-75
2022/06/02 01:31:25;;;;;;;48.97;32.45;;;512.80;2380.80;;;;;;5084715;28;20073;-75
2022/06/02 01:34:09;;;;;;;46.67;32.97;;;512.60;2380.80;;;;;;5083542;28;20020;-74
2022/06/02 01:36:43;;;;;;;47.72;32.15;;;512.60;2380.80;;;;;;5083850;28;20015;-73
2022/06/02 01:39:47;;;;;;;49.17;34.05;;;512.50;2380.80;;;;;;5082954;28;20474;-73
2022/06/02 01:42:15;;;;;;;48.95;35.05;;;512.60;2380.80;;;;;;5084208;28;20036;-73
2022/06/02 01:44:59;;;;;;;55.15;36.58;;;512.40;2380.80;;;;;;5084384;28;20081;-73
2022/06/02 01:47:42;;;;;;;52.30;35.97;;;512.30;2380.80;;;;;;5113693;28;20026;-73
2022/06/02 01:50:26;;;;;;;50.78;36.03;;;512.30;2380.80;;;;;;5086658;28;20042;-72
2022/06/02 01:52:58;;;;;;;52.80;36.72;;;512.30;2380.80;;;;;;5082954;28;20025;-73
2022/06/02 01:55:30;;;;;;;57.95;37.45;;;512.30;2380.80;;;;;;5082439;28;20275;-74
2022/06/02 01:58:15;;;;;;;54.03;36.95;;;512.30;2380.80;;;;;;5083181;28;20028;-73
2022/06/02 02:00:43;;;;;;;63.45;38.83;;;512.30;2380.80;;;;;;5083847;28;20031;-72
2022/06/02 02:03:09;;;;;;;61.75;39.20;;;512.10;2380.80;;;;;;5082220;28;20035;-74
2022/06/02 02:05:43;;;;;;;59.78;38.92;;;512.10;2380.80;;;;;;5083416;28;20016;-74
2022/06/02 02:08:28;;;;;;;67.40;42.00;;;512.20;2380.80;;;;;;5091365;28;20019;-72
2022/06/02 02:10:56;;;;;;;65.70;40.70;;;512.20;2380.80;;;;;;5094260;28;20024;-73
2022/06/02 02:13:47;;;;;;;64.80;41.70;;;512.20;2380.80;;;;;;5082146;28;20477;-73
2022/06/02 02:16:20;;;;;;;62.92;39.13;;;512.30;2380.80;;;;;;5082818;28;20017;-73
2022/06/02 02:19:10;;;;;;;59.30;37.92;;;512.30;2380.80;;;;;;5081934;28;20020;-73
2022/06/02 02:21:52;;;;;;;57.13;36.15;;;512.30;2380.80;;;;;;5081266;28;20044;-72
2022/06/02 02:24:49;;;;;;;54.28;37.10;;;512.20;2380.80;;;;;;5082772;28;20013;-73
2022/06/02 02:28:02;;;;;;;56.80;38.15;;;512.10;2380.80;;;;;;5082805;28;20024;-74
2022/06/02 02:30:28;;;;;;;57.47;37.80;;;512.00;2380.80;;;;;;5083152;28;20090;-73
2022/06/02 02:33:18;;;;;;;57.42;36.38;;;512.00;2380.80;;;;;;5082475;28;20272;-75
2022/06/02 02:36:21;;;;;;;57.75;37.40;;;512.00;2380.80;;;;;;5082417;28;20034;-73
2022/06/02 02:39:02;;;;;;;52.20;34.72;;;512.00;2380.80;;;;;;5083600;28;20016;-75
2022/06/02 02:41:57;;;;;;;54.22;36.65;;;487.30;2380.80;;;;;;5083254;28;20032;-73
2022/06/02 02:44:46;;;;;;;60.58;37.40;;;512.00;2380.80;;;;;;5083260;28;20019;-73
2022/06/02 02:47:21;;;;;;;63.67;37.78;;;487.30;2380.80;;;;;;5083490;28;20073;-72
2022/06/02 02:50:14;;;;;;;56.13;37.90;;;512.00;2380.80;;;;;;5083345;28;20112;-73
2022/06/02 02:53:12;;;;;;;59.80;39.55;;;487.30;2380.80;;;;;;5082400;28;20122;-73
2022/06/02 02:55:46;;;;;;;56.03;39.00;;;487.30;2380.80;;;;;;5083866;28;20021;-73
2022/06/02 02:58:24;;;;;;;59.05;38.42;;;487.30;2380.80;;;;;;5081197;28;20031;-74
2022/06/02 03:01:13;;;;;;;60.05;39.63;;;487.30;2380.80;;;;;;5080651;28;20490;-75
2022/06/02 03:03:56;;;;;;;54.42;38.45;;;512.00;2380.80;;;;;;5079036;28;20028;-75
2022/06/02 03:06:26;;;;;;;60.42;39.53;;;512.00;2380.80;;;;;;5082477;28;20027;-73
2022/06/02 03:09:18;;;;;;;70.65;41.78;;;512.00;2380.80;;;;;;5080782;28;20048;-74
2022/06/02 03:11:49;;;;;;;79.88;43.65;;;512.10;2380.80;;;;;;5082403;28;20070;-75
2022/06/02 03:14:27;;;;;;;87.82;45.08;;;512.10;2380.80;;;;;;5081411;28;20016;-74
2022/06/02 03:17:36;;;;;;;72.20;45.08;;;512.00;2380.80;;;;;;5080812;28;20020;-72
2022/06/02 03:20:41;;;;;;;67.80;43.13;;;512.10;2380.80;;;;;;5068688;28;20055;-75
2022/06/02 03:23:52;;;;;;;69.40;43.03;;;512.10;2380.80;;;;;;5041921;28;20156;-73
2022/06/02 03:26:33;;;;;;;68.20;43.33;;;512.20;2380.80;;;;;;5039093;28;20037;-75
2022/06/02 03:29:32;;;;;;;62.13;42.38;;;512.20;2380.80;;;;;;5038705;28;20046;-71
2022/06/02 03:32:04;;;;;;;67.28;41.88;;;512.20;2380.80;;;;;;5042810;28;20195;-72
2022/06/02 03:34:53;;;;;;;59.33;39.20;;;512.20;2380.80;;;;;;5038044;28;20143;-72
2022/06/02 03:37:42;;;;;;;67.10;40.28;;;512.20;2380.80;;;;;;5038932;28;20037;-73
2022/06/02 03:40:11;;;;;;;59.58;39.88;;;512.20;2380.80;;;;;;5040942;28;20114;-73
2022/06/02 03:42:45;;;;;;;64.22;41.28;;;512.20;2380.80;;;;;;5041274;28;20037;-72
2022/06/02 03:45:21;;;;;;;61.92;41.47;;;512.30;2380.80;;;;;;5037743;28;20344;-72
2022/06/02 03:48:12;;;;;;;66.45;43.83;;;512.20;2380.80;;;;;;5039005;28;20078;-72
2022/06/02 03:50:49;;;;;;;68.57;41.95;;;512.20;2380.80;;;;;;5038821;28;20535;-73
2022/06/02 03:53:26;;;;;;;62.92;43.00;;;512.40;2380.80;;;;;;5023804;28;20041;-72
2022/06/02 03:56:01;;;;;;;66.97;43.65;;;512.40;2380.80;;;;;;5040248;28;20421;-74
2022/06/02 03:58:42;;;;;;;66.90;44.25;;;512.40;2380.80;;;;;;5037632;28;20086;-75
2022/06/02 04:01:11;;;;;;;69.65;44.80;;;512.40;2380.80;;;;;;5077074;28;20129;-72
2022/06/02 04:04:12;;;;;;;69.07;44.95;;;512.30;2380.80;;;;;;5080582;28;20020;-73
2022/06/02 04:06:44;;;;;;;71.07;42.95;;;512.40;2380.80;;;;;;5080444;28;20017;-76
2022/06/02 04:09:30;;;;;;;68.45;44.85;;;512.40;2380.80;;;;;;5080585;28;20022;-74
2022/06/02 04:15:17;;;;;;;74.78;43.63;;;512.40;2380.80;;;;;;5082366;28;20558;-74
2022/06/02 04:17:51;;;;;;;69.03;45.40;;;512.50;2380.80;;;;;;5079638;28;20454;-75
2022/06/02 04:20:35;;;;;;;73.72;47.75;;;512.60;2380.80;;;;;;5082329;28;20112;-75
2022/06/02 04:23:22;;;;;;;73.40;47.08;;;512.70;2380.80;;;;;;5080865;28;20032;-73
2022/06/02 04:25:48;;;;;;;;;;;512.70;2380.80;;;;;;5082024;28;20027;-73
2022/06/02 04:28:37;;;;;;;75.40;48.33;;;512.70;2380.80;;;;;;5079675;28;19912;-76
2022/06/02 04:31:09;;;;;;;74.40;48.85;;;512.70;2380.80;;;;;;5091004;28;20386;-74
2022/06/02 04:33:48;;;;;;;68.88;48.70;;;512.80;2380.80;;;;;;5094432;28;20167;-72
2022/06/02 04:36:32;;;;;;;83.80;51.92;;;512.80;2380.80;;;;;;5082643;28;20024;-72
2022/06/02 04:39:01;;;;;;;88.28;48.60;;;512.90;2380.80;;;;;;5086583;28;20415;-72
2022/06/02 04:41:28;;;;;;;67.30;45.95;;;537.80;2406.40;;;;;;5101044;28;20031;-72
2022/06/02 04:43:53;;;;;;;66.68;45.60;;;537.90;2406.40;;;;;;5078962;28;20029;-74
2022/06/02 04:46:43;;;;;;;71.63;45.17;;;538.00;2406.40;;;;;;5100401;28;20020;-73
2022/06/02 04:49:26;;;;;;;68.03;42.65;;;538.10;2406.40;;;;;;5106411;28;20051;-73
2022/06/02 04:52:14;;;;;;;54.08;38.05;;;538.40;2406.40;;;;;;5091523;28;20108;-73
2022/06/02 04:55:03;;;;;;;52.20;36.03;;;538.50;2406.40;;;;;;5091524;28;20016;-73
2022/06/02 04:57:54;;;;;;;49.50;35.58;;;538.50;2406.40;;;;;;5051504;28;20044;-73
2022/06/02 05:00:48;;;;;;;42.88;28.83;;;563.40;2432.00;;;;;;5052506;28;20106;-75
2022/06/02 05:03:50;;;;;;;37.10;26.90;;;563.40;2432.00;;;;;;5049094;28;20037;-73
2022/06/02 05:06:23;;;;;;;32.90;23.60;;;563.60;2432.00;;;;;;5051990;28;20025;-73
2022/06/02 05:09:26;;;;;;;33.83;24.23;;;563.60;2432.00;;;;;;5052651;28;20569;-73
2022/06/02 05:12:24;;;;;;;29.23;20.05;;;563.70;2432.00;;;;;;5052191;28;20049;-74
2022/06/02 05:14:54;;;;;;;37.28;22.45;;;563.80;2432.00;;;;;;5051801;28;20128;-72
2022/06/02 05:17:23;;;;;;;34.40;22.65;;;564.00;2432.00;;;;;;5052423;28;20124;-73
2022/06/02 05:20:12;;;;;;;25.67;19.05;;;564.10;2432.00;;;;;;5052310;28;20434;-73
2022/06/02 05:23:01;;;;;;;21.90;16.25;;;588.80;2432.00;;;;;;5031704;28;20041;-73
2022/06/02 05:25:48;;;;;;;20.80;15.13;;;588.80;2432.00;;;;;;5032095;28;20478;-77
2022/06/02 05:28:30;;;;;;;35.00;17.08;;;588.90;2432.00;;;;;;5015253;28;20072;-78
2022/06/02 05:31:19;;;;;;;22.52;16.05;;;589.00;2432.00;;;;;;5032067;28;20487;-75
2022/06/02 05:33:45;;;;;;;18.17;15.65;;;589.00;2432.00;;;;;;5039374;28;20502;-75
2022/06/02 05:36:20;;;;;;;30.52;18.33;;;;;;;;;;5055207;28;20029;-77
2022/06/02 05:38:56;;;;;;;24.48;15.80;;;589.30;2432.00;;;;;;5072006;28;20025;-76
2022/06/02 05:42:10;;;;;;;21.38;15.90;;;589.30;2432.00;;;;;;5054828;28;20037;-75
2022/06/02 05:45:03;;;;;;;26.05;18.40;;;589.40;2432.00;;;;;;5008651;28;20034;-73
2022/06/02 05:47:38;;;;;;;20.83;14.55;;;589.50;2432.00;;;;;;4998640;28;20026;-79
2022/06/02 05:50:18;;;;;;;17.48;13.55;;;589.70;2432.00;;;;;;5008704;28;20022;-75
2022/06/02 05:53:02;;;;;;;18.45;15.40;;;589.70;2432.00;;;;;;4999802;28;20120;-77
2022/06/02 05:55:37;;;;;;;22.15;18.08;;;614.40;2432.00;;;;;;5010122;28;20037;-77
2022/06/02 05:58:03;;;;;;;24.98;16.65;;;614.50;2432.00;;;;;;5009039;28;20107;-76
2022/06/02 06:00:38;;;;;;;18.30;14.10;;;614.50;2432.00;;;;;;5022761;28;20558;-75
2022/06/02 06:03:32;;;;;;;19.67;14.63;;;614.50;2432.00;;;;;;5031411;28;20546;-76
2022/06/02 06:06:09;;;;;;;20.15;12.70;;;614.50;2432.00;;;;;;5031361;28;20064;-77
2022/06/02 06:08:43;;;;;;;14.40;12.50;;;614.50;2432.00;;;;;;5031126;28;20399;-77
2022/06/02 06:11:18;;;;;;;19.90;12.43;;;614.40;2432.00;;;;;;5014529;28;20108;-77
2022/06/02 06:13:50;;;;;;;18.98;13.70;;;614.40;2432.00;;;;;;5031319;28;20507;-77
2022/06/02 06:16:43;;;;;;;17.75;14.25;;;614.40;2432.00;;;;;;5025784;28;20025;-74
2022/06/02 06:19:27;;;;;;;21.00;14.38;;;614.40;2432.00;;;;;;5005622;28;20038;-75
2022/06/02 06:22:30;;;;;;;22.30;14.57;;;614.40;2432.00;;;;;;5083398;28;20043;-76
2022/06/02 06:25:14;;;;;;;23.50;15.63;;;614.50;2432.00;;;;;;5083975;28;20024;-76
2022/06/02 06:27:58;;;;;;;23.73;14.90;;;614.50;2432.00;;;;;;5077029;28;20020;-77
2022/06/02 06:30:46;;;;;;;18.02;13.88;;;614.50;2432.00;;;;;;5096735;28;20111;-78
2022/06/02 06:33:22;;;;;;;24.45;15.10;;;614.50;2432.00;;;;;;5103405;28;20047;-75
2022/06/02 06:36:18;;;;;;;21.20;15.35;;;614.60;2432.00;;;;;;5097844;28;20039;-75
2022/06/02 06:39:03;;;;;;;21.10;15.40;;;614.60;2432.00;;;;;;5080291;28;20036;-75
2022/06/02 06:42:01;;;;;;;18.70;14.57;;;614.60;2432.00;;;;;;5080305;28;20048;-75
2022/06/02 06:44:43;;;;;;;18.45;13.95;;;614.70;2432.00;;;;;;5082802;28;20106;-76
2022/06/02 06:47:44;;;;;;;19.27;13.32;;;614.80;2432.00;;;;;;5082119;28;20123;-76
2022/06/02 06:50:20;;;;;;;17.48;13.63;;;614.80;2432.00;;;;;;5058494;28;20032;-76
2022/06/02 06:53:17;;;;;;;19.52;13.98;;;614.80;2432.00;;;;;;5041348;28;20033;-75
2022/06/02 06:55:54;;;;;;;15.70;13.07;;;614.90;2432.00;;;;;;5064440;28;20029;-76
2022/06/02 06:58:57;;;;;;;21.48;14.25;;;615.00;2432.00;;;;;;5051851;28;20118;-76
2022/06/02 07:01:41;;;;;;;25.08;14.18;;;615.10;2432.00;;;;;;5070049;28;20078;-75
2022/06/02 07:04:36;;;;;;;18.23;14.32;;;615.20;2432.00;;;;;;5070286;28;20035;-75
2022/06/02 07:07:10;;;;;;;27.30;13.75;;;640.00;2432.00;;;;;;5070220;28;20037;-75
2022/06/02 07:09:59;;;;;;;17.58;12.20;;;640.00;2432.00;;;;;;5069945;28;20025;-74
2022/06/02 07:12:51;;;;;;;21.77;13.30;;;640.00;2432.00;;;;;;5069850;28;20036;-74
2022/06/02 07:15:23;;;;;;;20.92;12.13;;;640.10;2432.00;;;;;;5069708;28;20025;-75
2022/06/02 07:17:58;;;;;;;19.50;12.40;;;640.10;2432.00;;;;;;5069933;28;20112;-75
2022/06/02 07:20:24;;;;;;;24.42;13.75;;;640.20;2432.00;;;;;;5062312;28;20486;-76
2022/06/02 07:23:00;;;;;;;22.63;13.65;;;640.40;2432.00;;;;;;5059257;28;20044;-75
2022/06/02 07:25:51;;;;;;;24.67;14.02;;;640.40;2432.00;;;;;;5068814;28;20063;-75
2022/06/02 07:28:37;;;;;;;26.80;14.35;;;640.40;2432.00;;;;;;5078370;28;20100;-76
2022/06/02 07:31:22;;;;;;;21.02;13.20;;;640.40;2432.00;;;;;;5081116;28;20029;-76
2022/06/02 07:34:03;;;;;;;20.98;15.30;;;640.50;2432.00;;;;;;5081900;28;20470;-74
2022/06/02 07:36:49;;;;;;;26.75;17.33;;;640.40;2432.00;;;;;;5082731;28;20351;-77
2022/06/02 07:39:41;;;;;;;28.23;19.00;;;640.50;2432.00;;;;;;5073163;28;20436;-77
2022/06/02 07:42:23;;;;;;;30.88;20.88;;;640.70;2432.00;;;;;;5081482;28;20036;-75
2022/06/02 07:44:48;;;;;;;27.05;20.90;;;665.60;2432.00;;;;;;5092279;28;20039;-74
2022/06/02 07:47:32;;;;;;;35.63;22.65;;;665.80;2432.00;;;;;;5081940;28;20475;-74
2022/06/02 07:50:21;;;;;;;42.78;25.10;;;666.00;2432.00;;;;;;5078745;28;20162;-75
2022/06/02 07:53:11;;;;;;;41.95;22.90;;;666.00;2432.00;;;;;;5069655;28;20494;-77
2022/06/02 07:55:58;;;;;;;27.85;20.35;;;665.80;2432.00;;;;;;5082355;28;20024;-75
2022/06/02 07:58:55;;;;;;;40.05;19.10;;;665.90;2432.00;;;;;;5072603;28;20040;-75
2022/06/02 08:01:21;;;;;;;27.52;18.10;;;;;;;;;;5091591;28;20043;-76
2022/06/02 08:04:28;;;;;;;21.20;16.67;;;666.00;2432.00;;;;;;5091871;28;20098;-76
2022/06/02 08:07:12;;;;;;;33.38;20.13;;;666.30;2432.00;;;;;;5049050;28;20040;-78
2022/06/02 08:09:43;;;;;;;25.83;18.95;;;666.40;2432.00;;;;;;5032712;28;20514;-79
2022/06/02 08:12:29;;;;;;;29.42;20.17;;;691.20;2432.00;;;;;;5049452;28;20036;-78
2022/06/02 08:15:04;;;;;;;;;;;691.20;2432.00;;;;;;5033269;28;20039;-78
2022/06/02 08:17:38;;;;;;;27.13;17.48;;;691.30;2432.00;;;;;;5032571;28;19911;-78
2022/06/02 08:20:33;;;;;;;29.65;20.85;;;691.30;2432.00;;;;;;5049353;28;20025;-78
2022/06/02 08:23:11;;;;;;;29.80;19.70;;;691.30;2432.00;;;;;;5012737;28;20549;-78
2022/06/02 08:25:47;;;;;;;24.80;19.33;;;691.30;2432.00;;;;;;5029612;28;20029;-77
2022/06/02 08:28:21;;;;;;;25.83;17.35;;;691.30;2432.00;;;;;;5012494;28;20033;-77
2022/06/02 08:31:04;;;;;;;27.25;19.35;;;691.30;2432.00;;;;;;5014684;28;20529;-75
2022/06/02 08:33:37;;;;;;;26.45;18.00;;;691.40;2432.00;;;;;;5033057;28;20130;-76
2022/06/02 08:36:16;;;;;;;25.48;17.05;;;691.40;2432.00;;;;;;5032942;28;20034;-75
2022/06/02 08:39:17;;;;;;;22.95;15.40;;;691.40;2432.00;;;;;;5033129;28;20025;-75
2022/06/02 08:42:02;;;;;;;26.10;16.25;;;691.50;2432.00;;;;;;5016420;28;20072;-76
2022/06/02 08:45:21;;;;;;;24.10;16.20;;;691.50;2432.00;;;;;;5071996;28;20041;-76
2022/06/02 08:48:05;;;;;;;26.48;15.82;;;691.60;2432.00;;;;;;5010044;28;20551;-78
2022/06/02 08:50:48;;;;;;;24.42;15.10;;;691.70;2432.00;;;;;;5010126;28;20053;-76
2022/06/02 08:53:55;;;;;;;22.55;14.68;;;691.80;2432.00;;;;;;5012864;28;20038;-76
2022/06/02 08:56:58;;;;;;;23.27;15.45;;;691.80;2432.00;;;;;;5011839;28;20424;-77
2022/06/02 08:59:29;;;;;;;25.20;14.82;;;692.00;2432.00;;;;;;5020893;28;20037;-76
2022/06/02 09:02:19;;;;;;;21.00;13.60;;;691.90;2432.00;;;;;;5023877;28;20054;-75
2022/06/02 09:05:06;;;;;;;22.45;14.05;;;692.00;2432.00;;;;;;5022249;28;20025;-76
2022/06/02 09:07:56;;;;;;;20.55;14.63;;;716.90;2432.00;;;;;;5009752;28;20500;-79
2022/06/02 09:10:53;;;;;;;19.20;13.50;;;716.80;2432.00;;;;;;5010275;28;20033;-77
2022/06/02 09:13:59;;;;;;;16.50;11.70;;;716.90;2432.00;;;;;;5007736;28;20017;-76
2022/06/02 09:16:56;;;;;;;24.25;12.68;;;717.10;2432.00;;;;;;5004476;28;20116;-76
2022/06/02 09:19:47;;;;;;;17.55;12.25;;;717.20;2432.00;;;;;;5022853;28;20033;-78
2022/06/02 09:22:33;;;;;;;27.08;12.35;;;717.40;2432.00;;;;;;5061167;28;20051;-76
2022/06/02 09:25:21;;;;;;;19.98;11.40;;;717.30;2432.00;;;;;;5104378;28;20100;-75
2022/06/02 09:28:11;;;;;;;17.48;11.23;;;717.40;2432.00;;;;;;5087817;28;20028;-77
2022/06/02 09:30:37;;;;;;;19.80;12.23;;;717.60;2432.00;;;;;;5042518;28;20069;-75
2022/06/02 09:33:43;;;;;;;18.58;11.10;;;717.70;2304.00;;;;;;5048230;28;20075;-76
2022/06/02 09:36:43;;;;;;;12.82;9.35;;;742.40;2380.80;;;;;;5050630;28;20108;-76
2022/06/02 09:39:32;;;;;;;16.33;12.10;;;742.60;2252.80;;;;;;5050872;28;20098;-76
2022/06/02 09:42:28;;;;;;;20.98;10.38;;;742.70;2201.60;;;;;;5037846;28;20042;-76
2022/06/02 09:45:11;;;;;;;17.17;9.77;;;742.90;2278.40;;;;;;5044055;28;20033;-76
2022/06/02 09:47:51;;;;;;;14.55;8.65;;;743.00;2048.00;;;;;;5052263;28;20029;-77
2022/06/02 09:50:45;;;;;;;16.75;9.43;;;743.10;2150.40;;;;;;5053789;28;20064;-76
2022/06/02 09:53:21;;;;;;;17.25;9.82;;;743.00;2201.60;;;;;;5053803;28;20021;-76
2022/06/02 09:56:04;;;;;;;20.13;10.07;;;743.00;2201.60;;;;;;5053846;28;20021;-76
2022/06/02 09:58:59;;;;;;;14.43;9.65;;;743.20;2150.40;;;;;;5044328;28;20028;-75
2022/06/02 10:01:34;;;;;;;13.95;8.77;;;768.00;2201.60;;;;;;5045810;28;20033;-76
2022/06/02 10:04:27;;;;;;;19.53;8.90;;;768.20;2150.40;;;;;;5055933;28;20041;-76
2022/06/02 10:07:30;;;;;;;13.65;9.23;;;768.40;1996.80;;;;;;5053703;28;20029;-76
2022/06/02 10:10:02;;;;;;;14.63;8.48;;;768.50;1920.00;;;;;;5043198;28;20108;-78
2022/06/02 10:13:01;;;;;;;12.98;9.25;;;;;;;;;;5053260;28;20073;-76
2022/06/02 10:16:16;;;;;;;12.93;8.13;;;793.70;1894.40;;;;;;5024885;28;20043;-76
2022/06/02 10:18:50;;;;;;;22.15;8.90;;;793.90;1843.20;;;;;;5029061;28;20115;-75
2022/06/02 10:21:22;;;;;;;15.63;8.05;;;768.60;1868.80;;;;;;5030943;28;20504;-75
2022/06/02 10:24:03;;;;;;;12.02;8.65;;;768.40;1868.80;;;;;;5031127;28;20037;-75
2022/06/02 10:27:04;;;;;;;13.30;8.98;;;768.30;1894.40;;;;;;5014389;28;20088;-76
2022/06/02 10:29:55;;;;;;;12.85;9.43;;;768.60;1868.80;;;;;;5030585;28;20087;-75
2022/06/02 10:32:26;;;;;;;15.40;8.98;;;793.60;1945.60;;;;;;5030818;28;20038;-77
2022/06/02 10:35:11;;;;;;;12.02;9.25;;;793.60;1996.80;;;;;;5014246;28;20483;-79
2022/06/02 10:37:58;;;;;;;11.55;8.50;;;793.70;1971.20;;;;;;5028815;28;20037;-78
2022/06/02 10:40:42;;;;;;;16.35;10.30;;;794.00;1996.80;;;;;;5018653;28;20128;-76
2022/06/02 10:43:45;;;;;;;17.73;9.07;;;794.00;1792.00;;;;;;5011285;28;20428;-76
2022/06/02 10:46:23;;;;;;;14.68;9.02;;;794.10;1868.80;;;;;;5014090;28;20412;-75
2022/06/02 10:49:10;;;;;;;13.25;9.07;;;794.20;1894.40;;;;;;5030807;28;20199;-76
2022/06/02 10:51:54;;;;;;;13.00;9.05;;;794.10;1868.80;;;;;;5036100;28;20033;-76
2022/06/02 10:55:07;;;;;;;13.25;8.38;;;794.10;1792.00;;;;;;5072462;28;20047;-76
2022/06/02 10:57:59;;;;;;;21.88;9.93;;;794.00;1894.40;;;;;;5071118;28;20028;-75
2022/06/02 11:00:44;;;;;;;18.92;8.63;;;793.70;1843.20;;;;;;5072480;28;20028;-75
2022/06/02 11:03:18;;;;;;;13.30;7.95;;;768.80;1868.80;;;;;;5072621;28;20033;-76
2022/06/02 11:05:56;;;;;;;13.52;8.23;;;793.70;1817.60;;;;;;5072328;28;20020;-76
2022/06/02 11:08:40;;;;;;;16.77;8.38;;;794.00;1715.20;;;;;;5070906;28;20063;-81
2022/06/02 11:11:18;;;;;;;23.20;8.25;;;794.10;1792.00;;;;;;5071187;28;20129;-76
2022/06/02 11:14:09;;;;;;;19.17;9.65;;;794.50;1792.00;;;;;;5072184;28;20119;-75
2022/06/02 11:16:50;;;;;;;14.57;8.27;;;794.50;1740.80;;;;;;5060453;28;20038;-76
2022/06/02 11:19:16;;;;;;;12.82;7.00;;;819.20;1817.60;;;;;;5062251;28;20087;-75
2022/06/02 11:22:12;;;;;;;20.88;8.18;;;819.30;1689.60;;;;;;5063226;28;20036;-75
2022/06/02 11:24:58;;;;;;;;;;;819.30;1664.00;;;;;;5062530;28;20100;-76
2022/06/02 11:27:48;;;;;;;11.45;7.53;;;819.20;1664.00;;;;;;5059961;28;19915;-77
2022/06/02 11:31:05;;;;;;;13.50;8.82;;;819.30;1664.00;;;;;;5078670;28;20054;-78
2022/06/02 11:33:49;;;;;;;;;;;794.40;1715.20;;;;;;5082876;28;20035;-76
2022/06/02 11:36:33;;;;;;;11.30;7.07;;;794.40;1664.00;;;;;;5096703;28;20300;-75
2022/06/02 11:39:35;;;;;;;9.70;7.07;;;794.50;1689.60;;;;;;5080622;28;20097;-75
2022/06/02 11:42:25;;;;;;;14.45;7.07;;;819.30;1638.40;;;;;;5082678;28;20131;-75
2022/06/02 11:45:38;;;;;;;12.27;7.38;;;819.50;1638.40;;;;;;5104739;28;20019;-75
2022/06/02 11:48:29;;;;;;;10.60;7.32;;;819.60;1587.20;;;;;;5076953;28;20032;-76
2022/06/02 11:51:00;;;;;;;13.55;7.63;;;819.50;1638.40;;;;;;5081718;28;20016;-75
2022/06/02 11:53:48;;;;;;;13.90;7.72;;;819.70;1664.00;;;;;;5080180;28;20027;-76
2022/06/02 11:56:35;;;;;;;11.20;7.47;;;819.30;1792.00;;;;;;5080207;28;20022;-75
2022/06/02 11:59:30;;;;;;;11.95;7.53;;;794.50;1766.40;;;;;;5082299;28;20064;-75
2022/06/02 12:02:21;;;;;;;9.77;7.32;;;793.80;1715.20;;;;;;5079969;28;20067;-75
2022/06/02 12:05:11;;;;;;;14.95;7.80;;;768.90;1715.20;;;;;;5086423;28;20016;-77
2022/06/02 12:08:01;;;;;;;14.50;7.95;;;768.90;1740.80;;;;;;5053492;28;20527;-78
2022/06/02 12:10:35;;;;;;;12.38;6.80;;;794.00;1638.40;;;;;;5036398;28;20090;-76
2022/06/02 12:13:06;;;;;;;19.92;8.55;;;794.50;1587.20;;;;;;5053820;28;20111;-75
2022/06/02 12:15:41;;;;;;;11.63;7.70;;;794.20;1638.40;;;;;;5053603;28;20479;-74
2022/06/02 12:18:15;;;;;;;13.60;7.47;;;793.80;1638.40;;;;;;5053248;28;20437;-76
2022/06/02 12:20:55;;;;;;;12.57;7.43;;;793.60;1664.00;;;;;;5050516;28;20021;-76
2022/06/02 12:23:59;;;;;;;13.43;8.02;;;768.90;1689.60;;;;;;5047222;28;20490;-75
2022/06/02 12:26:31;;;;;;;14.05;7.03;;;793.70;1689.60;;;;;;4982743;28;20038;-74
2022/06/02 12:29:08;;;;;;;14.18;6.78;;;794.20;1689.60;;;;;;4983639;28;20067;-74
2022/06/02 12:32:14;;;;;;;12.05;7.18;;;794.00;1587.20;;;;;;4977132;28;20046;-73
2022/06/02 12:35:16;;;;;;;12.23;6.73;;;794.30;1510.40;;;;;;4977066;28;20061;-74
2022/06/02 12:38:02;;;;;;;14.43;7.10;;;794.50;1561.60;;;;;;4989143;28;20275;-75
2022/06/02 12:40:56;;;;;;;12.77;6.90;;;819.40;1536.00;;;;;;4974853;28;20068;-75
2022/06/02 12:43:27;;;;;;;18.20;7.68;;;819.70;1561.60;;;;;;4984147;28;20047;-75
2022/06/02 12:46:05;;;;;;;10.57;7.30;;;819.80;1536.00;;;;;;5007293;28;20074;-75
2022/06/02 12:49:01;;;;;;;13.05;7.13;;;819.90;1536.00;;;;;;5006848;28;20052;-75
2022/06/02 12:51:27;;;;;;;17.73;7.97;;;820.10;1561.60;;;;;;5001069;28;20032;-74
2022/06/02 12:54:30;;;;;;;9.52;6.80;;;820.10;1536.00;;;;;;5002770;28;20026;-75
2022/06/02 12:57:16;;;;;;;12.18;7.25;;;820.10;1510.40;;;;;;5003879;28;20026;-77
2022/06/02 12:59:48;;;;;;;21.38;7.85;;;819.80;1484.80;;;;;;4989596;28;20168;-74
2022/06/02 13:03:00;;;;;;;15.70;7.72;;;819.40;1510.40;;;;;;5049382;28;20051;-75
2022/06/02 13:06:10;;;;;;;18.48;8.30;;;819.30;1561.60;;;;;;5034057;28;20039;-74
2022/06/02 13:09:13;;;;;;;14.07;7.65;;;819.50;1587.20;;;;;;5043461;28;20038;-74
2022/06/02 13:12:15;;;;;;;14.27;7.30;;;819.70;1587.20;;;;;;5054525;28;20044;-74
2022/06/02 13:14:52;;;;;;;13.50;7.70;;;820.10;1536.00;;;;;;5054710;28;20025;-74
2022/06/02 13:17:37;;;;;;;11.45;7.72;;;820.10;1536.00;;;;;;5050667;28;20052;-75
2022/06/02 13:20:27;;;;;;;16.65;8.38;;;820.10;1484.80;;;;;;5046222;28;20029;-73
2022/06/02 13:23:23;;;;;;;12.00;7.90;;;820.10;1459.20;;;;;;5042966;28;20119;-75
2022/06/02 13:26:09;;;;;;;11.07;8.90;;;820.10;1510.40;;;;;;5031349;28;20411;-74
2022/06/02 13:29:13;;;;;;;14.45;8.80;;;844.90;1484.80;;;;;;5039984;28;20068;-75
2022/06/02 13:32:16;;;;;;;16.55;8.45;;;844.90;1484.80;;;;;;5025003;28;20128;-74
2022/06/02 13:35:08;;;;;;;12.60;7.93;;;844.90;1459.20;;;;;;5039032;28;20025;-75
2022/06/02 13:37:56;;;;;;;12.35;7.60;;;845.00;1433.60;;;;;;5026478;28;20395;-74